Time;durP1;ratioP1;P1;durP2;ratioP2;P2;SDS_P1;SDS_P2;PMS_P1;PMS_P2;Temp;Humidity;BMP_temperature;BMP_pressure;BME280_temperature;BME280_humidity;BME280_pressure;Samples;Min_cycle;Max_cycle;Signal;HPM_P1;HPM_P2
2021/12/09 00:01:20;;;;;;;;;;;0.00;99.90;;;;;;5090581;28;19950;-86
2021/12/09 00:03:48;;;;;;;;;;;0.00;99.90;;;;;;5094827;28;20297;-86
2021/12/09 00:06:20;;;;;;;;;;;0.00;99.90;;;;;;5099472;28;19917;-87
2021/12/09 00:08:46;;;;;;;;;;;0.00;99.90;;;;;;5096541;28;19924;-86
2021/12/09 00:11:13;;;;;;;;;;;-0.10;99.90;;;;;;5087522;28;19924;-87
2021/12/09 00:13:39;;;;;;;;;;;-0.10;99.90;;;;;;5088963;28;20272;-86
2021/12/09 00:16:06;;;;;;;;;;;-0.10;99.90;;;;;;5091048;28;19970;-85
2021/12/09 00:18:32;;;;;;;;;;;-0.20;99.90;;;;;;5082303;28;19988;-86
2021/12/09 00:21:00;;;;;;;;;;;-0.10;99.90;;;;;;5095679;28;19931;-85
2021/12/09 00:23:27;;;;;;;;;;;-0.30;99.90;;;;;;5099403;28;19930;-85
2021/12/09 00:25:54;;;;;;;;;;;-0.20;99.90;;;;;;5100817;28;19913;-83
2021/12/09 00:28:20;;;;;;;;;;;-0.30;99.90;;;;;;5100952;28;19912;-84
2021/12/09 00:30:47;;;;;;;;;;;-0.20;99.90;;;;;;5099967;28;19924;-85
2021/12/09 00:33:16;;;;;;;;;;;-0.30;99.90;;;;;;5099250;28;19912;-86
2021/12/09 00:35:46;;;;;;;;;;;-0.20;99.90;;;;;;5100164;28;20011;-85
2021/12/09 00:38:21;;;;;;;;;;;-0.20;99.90;;;;;;5092987;28;20425;-86
2021/12/09 00:40:48;;;;;;;;;;;-0.20;99.90;;;;;;5090101;28;19956;-85
2021/12/09 00:43:17;;;;;;;;;;;-0.20;99.90;;;;;;5090455;28;20391;-85
2021/12/09 00:45:44;;;;;;;;;;;-0.10;99.90;;;;;;5089986;28;19924;-84
2021/12/09 00:48:10;;;;;;;;;;;-0.30;99.90;;;;;;5091304;28;19913;-84
2021/12/09 00:50:37;;;;;;;;;;;-0.20;99.90;;;;;;5086944;28;19924;-86
2021/12/09 00:53:03;;;;;;;;;;;-0.20;99.90;;;;;;5087238;28;19968;-86
2021/12/09 00:55:31;;;;;;;;;;;-0.20;99.90;;;;;;5086848;28;19925;-86
2021/12/09 00:57:57;;;;;;;;;;;-0.10;99.90;;;;;;5085273;28;20445;-85
2021/12/09 01:00:24;;;;;;;;;;;-0.20;99.90;;;;;;5091900;28;19908;-85
2021/12/09 01:02:51;;;;;;;;;;;-0.20;99.90;;;;;;5100132;28;19908;-87
2021/12/09 01:05:18;;;;;;;;;;;-0.30;99.90;;;;;;5093944;28;19929;-87
2021/12/09 01:07:44;;;;;;;;;;;-0.20;99.90;;;;;;5097834;28;19931;-86
2021/12/09 01:10:13;;;;;;;;;;;0.40;99.90;;;;;;5096483;28;19912;-87
2021/12/09 01:12:41;;;;;;;;;;;-0.30;99.90;;;;;;5099227;28;19966;-84
2021/12/09 01:15:09;;;;;;;;;;;-0.30;99.90;;;;;;5096301;28;20413;-87
2021/12/09 01:17:35;;;;;;;;;;;-0.30;99.90;;;;;;5094205;28;19925;-87
2021/12/09 01:20:04;;;;;;;;;;;-0.60;99.90;;;;;;5091614;28;19925;-86
2021/12/09 01:22:36;;;;;;;;;;;-0.30;99.90;;;;;;5089125;28;19925;-86
2021/12/09 01:25:04;;;;;;;;;;;-0.20;99.90;;;;;;5088147;28;20370;-87
2021/12/09 01:27:33;;;;;;;;;;;-0.20;99.90;;;;;;5089268;28;19970;-87
2021/12/09 01:30:08;;;;;;;;;;;-0.20;99.90;;;;;;5087423;28;19925;-87
2021/12/09 01:32:34;;;;;;;;;;;-0.20;99.90;;;;;;5096444;28;19924;-86
2021/12/09 01:35:01;;;;;;;;;;;-0.20;99.90;;;;;;5087596;28;20383;-86
2021/12/09 01:37:28;;;;;;;;;;;-0.20;99.90;;;;;;5088349;28;19924;-86
2021/12/09 01:39:54;;;;;;;;;;;-0.10;99.90;;;;;;5087756;28;19932;-86
2021/12/09 01:42:21;;;;;;;;;;;-0.20;99.90;;;;;;5086977;28;19924;-86
2021/12/09 01:44:47;;;;;;;;;;;-0.20;99.90;;;;;;5086493;28;19924;-86
2021/12/09 01:47:15;;;;;;;;;;;-0.20;99.90;;;;;;5089118;28;19924;-86
2021/12/09 01:49:42;;;;;;;;;;;-0.30;99.90;;;;;;5087372;28;19924;-86
2021/12/09 01:52:08;;;;;;;;;;;-0.20;99.90;;;;;;5086209;28;19974;-85
2021/12/09 01:54:35;;;;;;;;;;;0.00;99.90;;;;;;5087582;28;19928;-86
2021/12/09 01:57:01;;;;;;;;;;;-0.20;99.90;;;;;;5086997;28;19925;-86
2021/12/09 01:59:28;;;;;;;;;;;-0.30;99.90;;;;;;5086811;28;20283;-87
2021/12/09 02:01:54;;;;;;;;;;;-0.20;99.90;;;;;;5087005;28;20317;-86
2021/12/09 02:04:22;;;;;;;;;;;-0.20;99.90;;;;;;5086310;28;19924;-86
2021/12/09 02:06:49;;;;;;;;;;;-0.30;99.90;;;;;;5086620;28;19924;-86
2021/12/09 02:09:16;;;;;;;;;;;-0.30;99.90;;;;;;5088080;28;20319;-85
2021/12/09 02:11:43;;;;;;;;;;;-0.30;99.90;;;;;;5088243;28;19932;-85
2021/12/09 02:14:09;;;;;;;;;;;0.80;99.90;;;;;;5088343;28;19954;-86
2021/12/09 02:16:36;;;;;;;;;;;-0.20;99.90;;;;;;5089386;28;20392;-86
2021/12/09 02:19:03;;;;;;;;;;;-0.20;99.90;;;;;;5081772;28;19974;-84
2021/12/09 02:21:32;;;;;;;;;;;-0.30;99.90;;;;;;5084457;28;20345;-85
2021/12/09 02:23:59;;;;;;;;;;;-0.10;99.90;;;;;;5090283;28;19924;-86
2021/12/09 02:26:27;;;;;;;;;;;-0.20;99.90;;;;;;5094155;28;19924;-83
2021/12/09 02:28:55;;;;;;;;;;;-0.30;99.90;;;;;;5096496;28;19925;-86
2021/12/09 02:31:22;;;;;;;;;;;-0.30;99.90;;;;;;5096272;28;19980;-85
2021/12/09 02:33:49;;;;;;;;;;;-0.30;99.90;;;;;;5097913;28;19932;-86
2021/12/09 02:36:15;;;;;;;;;;;-0.30;99.90;;;;;;5097833;28;19908;-85
2021/12/09 02:38:44;;;;;;;;;;;-0.30;99.90;;;;;;5097671;28;19924;-85
2021/12/09 02:41:15;;;;;;;;;;;-0.30;99.90;;;;;;5098238;28;19912;-83
2021/12/09 02:43:42;;;;;;;;;;;-0.30;99.90;;;;;;5094368;28;19964;-86
2021/12/09 02:46:09;;;;;;;;;;;-0.20;99.90;;;;;;5091643;28;19924;-86
2021/12/09 02:48:36;;;;;;;;;;;-0.60;99.90;;;;;;5086935;28;19931;-86
2021/12/09 02:51:04;;;;;;;;;;;-0.30;99.90;;;;;;5086926;28;19931;-85
2021/12/09 02:53:30;;;;;;;;;;;-0.30;99.90;;;;;;5088247;28;19974;-86
2021/12/09 02:55:58;;;;;;;;;;;-0.30;99.90;;;;;;5085991;28;20492;-85
2021/12/09 02:58:25;;;;;;;;;;;-0.20;99.90;;;;;;5087939;28;19925;-84
2021/12/09 03:00:57;;;;;;;;;;;0.00;99.90;;;;;;5092795;28;19934;-84
2021/12/09 03:03:24;;;;;;;;;;;-0.30;99.90;;;;;;5092818;28;19924;-84
2021/12/09 03:05:52;;;;;;;;;;;-0.30;99.90;;;;;;5092494;28;19980;-86
2021/12/09 03:08:33;;;;;;;;;;;-0.30;99.90;;;;;;5091998;28;19924;-86
2021/12/09 03:11:03;;;;;;;;;;;-0.20;99.90;;;;;;5090033;28;19972;-87
2021/12/09 03:13:29;;;;;;;;;;;-0.30;99.90;;;;;;5085326;28;19924;-87
2021/12/09 03:15:56;;;;;;;;;;;-0.40;99.90;;;;;;5098146;22;19929;-81
2021/12/09 03:18:22;;;;;;;;;;;-0.50;99.90;;;;;;5083744;28;19931;-81
2021/12/09 03:20:49;;;;;;;;;;;-1.10;99.90;;;;;;5078780;28;19998;-80
2021/12/09 03:23:15;;;;;;;;;;;-0.30;99.90;;;;;;5081735;28;20440;-80
2021/12/09 03:25:42;;;;;;;;;;;-0.40;99.90;;;;;;5081075;28;19986;-79
2021/12/09 03:28:10;;;;;;;;;;;-0.40;99.90;;;;;;5081524;28;19925;-80
2021/12/09 03:30:36;;;;;;;;;;;-0.50;99.90;;;;;;5081775;28;20349;-80
2021/12/09 03:33:03;;;;;;;;;;;-0.80;99.90;;;;;;5083809;28;20445;-81
2021/12/09 03:35:29;;;;;;;;;;;-0.50;99.90;;;;;;5086481;28;19924;-81
2021/12/09 03:37:56;;;;;;;;;;;-0.40;99.90;;;;;;5085980;28;19924;-80
2021/12/09 03:40:22;;;;;;;;;;;-0.30;99.90;;;;;;5094563;28;19936;-80
2021/12/09 03:42:49;;;;;;;;;;;-0.50;99.90;;;;;;5092906;28;20283;-81
2021/12/09 03:45:16;;;;;;;;;;;-0.90;99.90;;;;;;5091124;28;19929;-80
2021/12/09 03:47:44;;;;;;;;;;;-0.60;99.90;;;;;;5095981;28;19955;-80
2021/12/09 03:50:13;;;;;;;;;;;0.00;99.90;;;;;;5076008;28;21024;-81
2021/12/09 03:52:39;;;;;;;;;;;-0.30;99.90;;;;;;5090739;28;20291;-81
2021/12/09 03:55:07;;;;;;;;;;;-0.80;99.90;;;;;;5089600;28;19924;-81
2021/12/09 03:57:33;;;;;;;;;;;-0.40;99.90;;;;;;5090639;28;19934;-81
2021/12/09 04:00:00;;;;;;;;;;;-0.50;99.90;;;;;;5091056;28;19924;-81
2021/12/09 04:02:28;;;;;;;;;;;-0.30;99.90;;;;;;5089969;28;19990;-80
2021/12/09 04:04:54;;;;;;;;;;;-0.40;99.90;;;;;;5089882;28;19925;-80
2021/12/09 04:07:21;;;;;;;;;;;-0.60;99.90;;;;;;5091377;28;19924;-80
2021/12/09 04:09:47;;;;;;;;;;;-0.10;99.90;;;;;;5090910;28;19925;-80
2021/12/09 04:12:14;;;;;;;;;;;-0.40;99.90;;;;;;5092924;28;19924;-80
2021/12/09 04:14:40;;;;;;;;;;;-0.70;99.90;;;;;;5088299;28;19989;-80
2021/12/09 04:17:07;;;;;;;;;;;-0.40;99.90;;;;;;5090639;28;19924;-80
2021/12/09 04:19:35;;;;;;;;;;;-0.70;99.90;;;;;;5091559;28;19924;-80
2021/12/09 04:22:02;;;;;;;;;;;-0.60;99.90;;;;;;5091722;28;19924;-80
2021/12/09 04:24:29;;;;;;;;;;;-0.30;99.90;;;;;;5089858;28;19925;-80
2021/12/09 04:26:56;;;;;;;;;;;-0.30;99.90;;;;;;5088919;28;19928;-80
2021/12/09 04:29:22;;;;;;;;;;;-0.70;99.90;;;;;;5089301;28;20405;-80
2021/12/09 04:31:51;;;;;;;;;;;-0.40;99.90;;;;;;5091752;28;19931;-80
2021/12/09 04:34:18;;;;;;;;;;;-0.50;99.90;;;;;;5089723;28;19928;-79
2021/12/09 04:36:45;;;;;;;;;;;-0.30;99.90;;;;;;5089267;28;19925;-79
2021/12/09 04:39:12;;;;;;;;;;;-0.30;99.90;;;;;;5089670;28;19925;-79
2021/12/09 04:41:43;;;;;;;;;;;-0.40;99.90;;;;;;5090318;28;19947;-79
2021/12/09 04:44:10;;;;;;;;;;;-0.40;99.90;;;;;;5089106;28;19924;-80
2021/12/09 04:46:37;;;;;;;;;;;-0.40;99.90;;;;;;5092047;28;19924;-79
2021/12/09 04:49:04;;;;;;;;;;;-0.30;99.90;;;;;;5088591;28;19924;-80
2021/12/09 04:51:30;;;;;;;;;;;-1.50;99.90;;;;;;5090018;28;19924;-80
2021/12/09 04:53:58;;;;;;;;;;;-0.90;99.90;;;;;;5089513;28;20379;-81
2021/12/09 04:56:25;;;;;;;;;;;-0.40;99.90;;;;;;5083078;28;19925;-81
2021/12/09 04:58:51;;;;;;;;;;;-0.60;99.90;;;;;;5084402;28;19966;-79
2021/12/09 05:01:18;;;;;;;;;;;-0.50;99.90;;;;;;5087907;28;19924;-80
2021/12/09 05:03:47;;;;;;;;;;;-0.40;99.90;;;;;;5086301;28;19932;-79
2021/12/09 05:06:15;;;;;;;;;;;-0.30;99.90;;;;;;5092057;28;19967;-79
2021/12/09 05:08:45;;;;;;;;;;;0.80;99.90;;;;;;5086356;28;20371;-78
2021/12/09 05:11:26;;;;;;;;;;;-0.50;99.90;;;;;;5082783;28;19963;-79
2021/12/09 05:13:53;;;;;;;;;;;-0.40;99.90;;;;;;5089347;28;19924;-80
2021/12/09 05:16:19;;;;;;;;;;;-0.30;99.90;;;;;;5084019;28;19960;-79
2021/12/09 05:18:46;;;;;;;;;;;-0.40;99.90;;;;;;5086442;28;19924;-80
2021/12/09 05:21:13;;;;;;;;;;;-0.40;99.90;;;;;;5089177;28;19924;-80
2021/12/09 05:23:40;;;;;;;;;;;-0.50;99.90;;;;;;5095906;28;19924;-80
2021/12/09 05:26:07;;;;;;;;;;;-0.40;99.90;;;;;;5096029;28;19921;-81
2021/12/09 05:28:36;;;;;;;;;;;-0.40;99.90;;;;;;5094918;28;19924;-81
2021/12/09 05:33:48;;;;;;;;;;;-0.50;99.90;;;;;;5096071;28;19946;-80
2021/12/09 05:36:15;;;;;;;;;;;-0.50;99.90;;;;;;5093626;28;19924;-81
2021/12/09 05:38:42;;;;;;;;;;;-0.10;99.90;;;;;;5086719;28;19925;-81
2021/12/09 05:41:08;;;;;;;;;;;-0.30;99.90;;;;;;5086256;28;19924;-82
2021/12/09 05:43:36;;;;;;;;;;;-0.40;99.90;;;;;;5085738;28;19925;-82
2021/12/09 05:46:03;;;;;;;;;;;-0.40;99.90;;;;;;5083011;28;19925;-79
2021/12/09 05:48:31;;;;;;;;;;;-0.50;99.90;;;;;;5084534;28;19925;-81
2021/12/09 05:50:57;;;;;;;;;;;-0.60;99.90;;;;;;5084174;28;19928;-80
2021/12/09 05:53:24;;;;;;;;;;;-0.40;99.90;;;;;;5084010;28;19924;-81
2021/12/09 05:55:50;;;;;;;;;;;-0.50;99.90;;;;;;5083856;28;19951;-80
2021/12/09 05:58:18;;;;;;;;;;;-0.40;99.90;;;;;;5084323;28;19982;-80
2021/12/09 06:00:46;;;;;;;;;;;-0.50;99.90;;;;;;5084003;28;19939;-80
2021/12/09 06:03:12;;;;;;;;;;;-1.00;99.90;;;;;;5084484;28;19924;-80
2021/12/09 06:05:39;;;;;;;;;;;-0.60;99.90;;;;;;5084394;28;19925;-81
2021/12/09 06:08:06;;;;;;;;;;;-0.50;99.90;;;;;;5083469;28;19924;-80
2021/12/09 06:10:34;;;;;;;;;;;-0.80;99.90;;;;;;5084085;28;19931;-81
2021/12/09 06:13:01;;;;;;;;;;;-1.00;99.90;;;;;;5085367;28;19924;-80
2021/12/09 06:15:27;;;;;;;;;;;-0.50;99.90;;;;;;5086261;28;20337;-80
2021/12/09 06:17:55;;;;;;;;;;;-0.20;99.90;;;;;;5086493;28;19924;-80
2021/12/09 06:20:22;;;;;;;;;;;-0.30;99.90;;;;;;5088169;28;19924;-80
2021/12/09 06:22:48;;;;;;;;;;;-0.50;99.90;;;;;;5085377;28;19925;-80
2021/12/09 06:25:18;;;;;;;;;;;0.00;99.90;;;;;;5081309;28;19970;-81
2021/12/09 06:27:44;;;;;;;;;;;-0.40;99.90;;;;;;5086184;28;19925;-79
2021/12/09 06:30:12;;;;;;;;;;;-0.70;99.90;;;;;;5085404;28;19947;-81
2021/12/09 06:32:39;;;;;;;;;;;-0.30;99.90;;;;;;5082633;28;20339;-81
2021/12/09 06:35:07;;;;;;;;;;;-0.30;99.90;;;;;;5081135;28;20387;-80
2021/12/09 06:37:35;;;;;;;;;;;-0.20;99.90;;;;;;5081027;28;19924;-80
2021/12/09 06:40:02;;;;;;;;;;;-0.10;99.90;;;;;;5081462;28;19974;-81
2021/12/09 06:42:28;;;;;;;;;;;-0.50;99.90;;;;;;5085002;28;19925;-80
2021/12/09 06:44:55;;;;;;;;;;;-0.20;99.90;;;;;;5087182;28;20406;-79
2021/12/09 06:47:21;;;;;;;;;;;-0.20;99.90;;;;;;5089425;28;19909;-80
2021/12/09 06:49:47;;;;;;;;;;;-0.20;99.90;;;;;;5090384;28;19913;-80
2021/12/09 06:52:15;;;;;;;;;;;-0.20;99.90;;;;;;5087169;28;19928;-79
2021/12/09 06:54:42;;;;;;;;;;;-0.70;99.90;;;;;;5082813;28;19924;-81
2021/12/09 06:57:08;;;;;;;;;;;-0.30;99.90;;;;;;5082173;28;19924;-80
2021/12/09 06:59:35;;;;;;;;;;;-0.40;99.90;;;;;;5081941;28;19924;-80
2021/12/09 07:02:01;;;;;;;;;;;-0.70;99.90;;;;;;5083091;28;19925;-80
2021/12/09 07:04:28;;;;;;;;;;;-0.30;99.90;;;;;;5082671;28;19924;-80
2021/12/09 07:06:54;;;;;;;;;;;-0.40;99.90;;;;;;5081581;28;19924;-80
2021/12/09 07:09:27;;;;;;;;;;;0.30;99.90;;;;;;5083366;28;19928;-79
2021/12/09 07:11:54;;;;;;;;;;;-0.60;99.90;;;;;;5080358;28;20376;-81
2021/12/09 07:14:20;;;;;;;;;;;-0.40;99.90;;;;;;5081044;28;19924;-79
2021/12/09 07:16:47;;;;;;;;;;;-0.60;99.90;;;;;;5088254;28;19950;-79
2021/12/09 07:19:14;;;;;;;;;;;-0.50;99.90;;;;;;5094901;28;19935;-80
2021/12/09 07:21:40;;;;;;;;;;;-0.50;99.90;;;;;;5098109;28;19912;-81
2021/12/09 07:24:07;;;;;;;;;;;-0.50;99.90;;;;;;5095030;28;19930;-79
2021/12/09 07:26:35;;;;;;;;;;;-0.60;99.90;;;;;;5088051;28;19928;-79
2021/12/09 07:29:01;;;;;;;;;;;-0.90;99.90;;;;;;5091546;28;19931;-80
2021/12/09 07:31:28;;;;;;;;;;;-0.60;99.90;;;;;;5087899;28;19948;-82
2021/12/09 07:33:56;;;;;;;;;;;0.20;99.90;;;;;;5088394;28;20294;-79
2021/12/09 07:36:22;;;;;;;;;;;-0.60;99.90;;;;;;5094955;28;19965;-80
2021/12/09 07:38:49;;;;;;;;;;;-0.10;99.90;;;;;;5094586;28;19924;-80
2021/12/09 07:41:18;;;;;;;;;;;-0.70;99.90;;;;;;5091678;28;19925;-82
2021/12/09 07:43:46;;;;;;;;;;;-0.60;99.90;;;;;;5090453;28;20019;-81
2021/12/09 07:46:12;;;;;;;;;;;-0.60;99.90;;;;;;5084168;28;20296;-80
2021/12/09 07:48:39;;;;;;;;;;;-0.80;99.90;;;;;;5091250;28;19924;-78
2021/12/09 07:51:05;;;;;;;;;;;-0.50;99.90;;;;;;5090663;28;19924;-79
2021/12/09 07:53:32;;;;;;;;;;;-1.00;99.90;;;;;;5094847;28;19924;-79
2021/12/09 07:55:58;;;;;;;;;;;-0.60;99.90;;;;;;5087422;28;19924;-80
2021/12/09 07:58:25;;;;;;;;;;;-0.60;99.90;;;;;;5094757;28;19925;-80
2021/12/09 08:00:56;;;;;;;;;;;-0.50;99.90;;;;;;5091720;28;20299;-83
2021/12/09 08:03:33;;;;;;;;;;;-0.50;99.90;;;;;;5090586;28;19936;-83
2021/12/09 08:06:08;;;;;;;;;;;-0.50;99.90;;;;;;5085934;28;19972;-82
2021/12/09 08:08:37;;;;;;;;;;;-0.60;99.90;;;;;;5085450;28;19925;-79
2021/12/09 08:11:03;;;;;;;;;;;-0.50;99.90;;;;;;5090614;28;19974;-81
2021/12/09 08:13:30;;;;;;;;;;;-0.60;99.90;;;;;;5083202;28;19924;-81
2021/12/09 08:15:58;;;;;;;;;;;;;;;;;;5085986;28;19932;-83
2021/12/09 08:18:27;;;;;;;;;;;-0.40;99.90;;;;;;5081641;28;20011;-82
2021/12/09 08:20:56;;;;;;;;;;;-0.40;99.90;;;;;;5082405;28;19932;-80
2021/12/09 08:23:24;;;;;;;;;;;-0.40;99.90;;;;;;5081803;28;19975;-80
2021/12/09 08:25:51;;;;;;;;;;;-0.50;99.90;;;;;;5082233;28;19928;-81
2021/12/09 08:28:17;;;;;;;;;;;-0.40;99.90;;;;;;5081970;28;20291;-81
2021/12/09 08:30:44;;;;;;;;;;;-0.50;99.90;;;;;;5082423;28;19924;-80
2021/12/09 08:33:11;;;;;;;;;;;-0.70;99.90;;;;;;5082275;28;19925;-80
2021/12/09 08:35:39;;;;;;;;;;;-0.40;99.90;;;;;;5082941;28;20240;-79
2021/12/09 08:38:06;;;;;;;;;;;-0.80;99.90;;;;;;5083197;28;19924;-81
2021/12/09 08:40:33;;;;;;;;;;;-0.40;99.90;;;;;;5083333;28;19925;-80
2021/12/09 08:42:59;;;;;;;;;;;-0.50;99.90;;;;;;5082221;28;19988;-80
2021/12/09 08:45:26;;;;;;;;;;;-0.50;99.90;;;;;;5082556;28;19976;-81
2021/12/09 08:47:53;;;;;;;;;;;-0.70;99.90;;;;;;5079386;28;19924;-81
2021/12/09 08:50:21;;;;;;;;;;;-0.40;99.90;;;;;;5090187;28;19928;-80
2021/12/09 08:52:50;;;;;;;;;;;-0.60;99.90;;;;;;5091942;28;19924;-80
2021/12/09 08:55:18;;;;;;;;;;;-0.50;99.90;;;;;;5096881;28;20395;-80
2021/12/09 08:57:46;;;;;;;;;;;-0.70;99.90;;;;;;5092889;28;19924;-80
2021/12/09 09:00:14;;;;;;;;;;;-0.90;99.90;;;;;;5090348;28;19931;-78
2021/12/09 09:02:41;;;;;;;;;;;-0.50;99.90;;;;;;5094387;28;19924;-79
2021/12/09 09:05:10;;;;;;;;;;;-0.40;99.90;;;;;;5086984;28;19929;-79
2021/12/09 09:07:37;;;;;;;;;;;-0.40;99.90;;;;;;5089610;28;19925;-81
2021/12/09 09:10:06;;;;;;;;;;;-0.50;99.90;;;;;;5086201;28;20355;-81
2021/12/09 09:12:33;;;;;;;;;;;-0.40;99.90;;;;;;5083272;28;19985;-81
2021/12/09 09:15:00;;;;;;;;;;;-0.40;99.90;;;;;;5084280;28;19925;-81
2021/12/09 09:17:26;;;;;;;;;;;-0.30;99.90;;;;;;5075487;22;19947;-85
2021/12/09 09:19:53;;;;;;;;;;;-0.30;99.90;;;;;;5050806;28;19952;-86
2021/12/09 09:22:20;;;;;;;;;;;-0.30;99.90;;;;;;5049170;28;19909;-86
2021/12/09 09:24:46;;;;;;;;;;;-0.30;99.90;;;;;;5049312;28;19948;-85
2021/12/09 09:27:14;;;;;;;;;;;-0.30;99.90;;;;;;5052912;28;19978;-84
2021/12/09 09:29:42;;;;;;;;;;;-0.30;99.90;;;;;;5051684;28;19925;-86
2021/12/09 09:32:12;;;;;;;;;;;-0.30;99.90;;;;;;5049743;28;19960;-86
2021/12/09 09:34:39;;;;;;;;;;;-0.30;99.90;;;;;;5049253;28;19933;-85
2021/12/09 09:37:06;;;;;;;;;;;-0.30;99.90;;;;;;5048386;28;19925;-86
2021/12/09 09:39:33;;;;;;;;;;;-0.30;99.90;;;;;;5049974;28;19971;-85
2021/12/09 09:42:18;;;;;;;;;;;-0.50;99.90;;;;;;5054102;28;19952;-86
2021/12/09 09:44:54;;;;;;;;;;;-0.30;99.90;;;;;;5054481;28;19995;-86
2021/12/09 09:47:22;;;;;;;;;;;-0.30;99.90;;;;;;5056885;28;19925;-86
2021/12/09 09:49:49;;;;;;;;;;;-0.30;99.90;;;;;;5057439;28;19909;-87
2021/12/09 09:52:16;;;;;;;;;;;-0.20;99.90;;;;;;5056434;28;19909;-86
2021/12/09 09:54:42;;;;;;;;;;;-0.10;99.90;;;;;;5056601;28;19936;-88
2021/12/09 09:57:11;;;;;;;;;;;-0.10;99.90;;;;;;5055661;28;19925;-87
2021/12/09 09:59:40;;;;;;;;;;;-0.10;99.90;;;;;;5056491;28;19925;-86
2021/12/09 10:02:09;;;;;;;;;;;-0.10;99.90;;;;;;5051449;28;19925;-87
2021/12/09 10:04:44;;;;;;;;;;;-0.10;99.90;;;;;;5050455;28;19971;-87
2021/12/09 10:07:12;;;;;;;;;;;0.00;99.90;;;;;;5051492;28;19925;-87
2021/12/09 10:09:42;;;;;;;;;;;-0.10;99.90;;;;;;5055210;28;19925;-87
2021/12/09 10:12:09;;;;;;;;;;;0.00;99.90;;;;;;5057526;28;19925;-86
2021/12/09 10:14:36;;;;;;;;;;;0.00;99.90;;;;;;5057592;28;19909;-85
2021/12/09 10:17:04;;;;;;;;;;;0.00;99.90;;;;;;5057877;28;19940;-84
2021/12/09 10:19:33;;;;;;;;;;;0.10;99.90;;;;;;5058865;28;19909;-84
2021/12/09 10:22:10;;;;;;;;;;;0.10;99.90;;;;;;5057885;28;19948;-86
2021/12/09 10:24:37;;;;;;;;;;;0.10;99.90;;;;;;5057319;28;19947;-85
2021/12/09 10:27:05;;;;;;;;;;;0.00;99.90;;;;;;5055052;28;19955;-85
2021/12/09 10:29:36;;;;;;;;;;;0.00;99.90;;;;;;5055957;28;19929;-86
2021/12/09 10:32:05;;;;;;;;;;;-0.20;99.90;;;;;;5055703;28;19925;-85
2021/12/09 10:34:36;;;;;;;;;;;0.00;99.90;;;;;;5056611;28;19929;-84
2021/12/09 10:37:04;;;;;;;;;;;-0.10;99.90;;;;;;5056671;28;19925;-85
2021/12/09 10:39:32;;;;;;;;;;;-0.20;99.90;;;;;;5057179;28;19975;-84
2021/12/09 10:42:00;;;;;;;;;;;0.00;99.90;;;;;;5054161;28;19926;-86
2021/12/09 10:44:31;;;;;;;;;;;0.00;99.90;;;;;;5051438;28;19925;-87
2021/12/09 10:47:07;;;;;;;;;;;0.00;99.90;;;;;;5054519;28;19925;-85
2021/12/09 10:49:41;;;;;;;;;;;0.00;99.90;;;;;;5055186;28;20395;-85
2021/12/09 10:52:19;;;;;;;;;;;0.00;99.90;;;;;;5058305;28;19940;-83
2021/12/09 10:54:46;;;;;;;;;;;0.00;99.90;;;;;;5056548;28;19948;-85
2021/12/09 10:57:26;;;;;;;;;;;0.00;99.90;;;;;;5052284;28;19936;-86
2021/12/09 10:59:53;;;;;;;;;;;0.00;99.90;;;;;;5051220;28;19925;-86
2021/12/09 11:02:20;;;;;;;;;;;-0.10;99.90;;;;;;5051906;28;19925;-86
2021/12/09 11:05:01;;;;;;;;;;;0.20;99.90;;;;;;5052112;28;19925;-85
2021/12/09 11:07:31;;;;;;;;;;;-0.20;99.90;;;;;;5051602;28;19925;-86
2021/12/09 11:10:17;;;;;;;;;;;0.10;99.90;;;;;;5057703;28;19932;-83
2021/12/09 11:12:48;;;;;;;;;;;-0.60;99.90;;;;;;5060624;28;19926;-85
2021/12/09 11:15:16;;;;;;;;;;;0.00;99.90;;;;;;5055654;28;19948;-86
2021/12/09 11:17:46;;;;;;;;;;;0.10;99.90;;;;;;5052465;28;19944;-84
2021/12/09 11:20:14;;;;;;;;;;;0.00;99.90;;;;;;5055088;28;20016;-85
2021/12/09 11:22:44;;;;;;;;;;;0.10;99.90;;;;;;5058879;28;19985;-85
2021/12/09 11:25:29;;;;;;;;;;;0.10;99.90;;;;;;5059247;28;19925;-86
2021/12/09 11:28:11;;;;;;;;;;;0.10;99.90;;;;;;5060138;28;19948;-84
2021/12/09 11:30:53;;;;;;;;;;;0.30;99.90;;;;;;5061565;28;19925;-84
2021/12/09 11:33:29;;;;;;;;;;;0.30;99.90;;;;;;5055167;28;20368;-85
2021/12/09 11:35:57;;;;;;;;;;;0.30;99.90;;;;;;5054482;28;19925;-85
2021/12/09 11:38:42;;;;;;;;;;;0.20;99.90;;;;;;5052570;28;19949;-87
2021/12/09 11:41:23;;;;;;;;;;;0.10;99.90;;;;;;5052902;28;19925;-86
2021/12/09 11:43:51;;;;;;;;;;;0.10;99.90;;;;;;5056612;28;19925;-86
2021/12/09 11:46:18;;;;;;;;;;;0.20;99.90;;;;;;5052052;28;19925;-85
2021/12/09 11:48:45;;;;;;;;;;;0.00;99.90;;;;;;5051148;28;19925;-86
2021/12/09 11:51:12;;;;;;;;;;;;;;;;;;5051203;28;19951;-86
2021/12/09 11:53:43;;;;;;;;;;;0.10;99.90;;;;;;5054417;28;19956;-85
2021/12/09 11:56:22;;;;;;;;;;;0.50;99.90;;;;;;5049781;28;19989;-86
2021/12/09 11:59:19;;;;;;;;;;;0.20;99.90;;;;;;5050622;28;19925;-84
2021/12/09 12:07:54;;;;;;;;;;;0.20;99.90;;;;;;5050428;28;20013;-86
2021/12/09 12:13:29;;;;;;;;;;;0.10;99.90;;;;;;5050617;28;19932;-84
2021/12/09 12:15:59;;;;;;;;;;;0.10;99.90;;;;;;5050883;28;19932;-85
2021/12/09 12:18:37;;;;;;;;;;;0.10;99.90;;;;;;5052998;28;20384;-86
2021/12/09 12:21:38;;;;;;;;;;;0.10;99.90;;;;;;5058248;28;19913;-85
2021/12/09 12:24:34;;;;;;;;;;;0.10;99.90;;;;;;5059523;28;19976;-85
2021/12/09 12:27:07;;;;;;;;;;;0.10;99.90;;;;;;5059188;28;19948;-83
2021/12/09 12:30:06;;;;;;;;;;;0.20;99.90;;;;;;5058406;28;19932;-85
2021/12/09 12:32:57;;;;;;;;;;;0.20;99.90;;;;;;5053272;28;19925;-84
2021/12/09 12:38:29;;;;;;;;;;;0.30;99.90;;;;;;5050926;28;19944;-86
2021/12/09 12:41:06;;;;;;;;;;;0.30;99.90;;;;;;5051942;28;19925;-85
2021/12/09 12:43:38;;;;;;;;;;;0.30;99.90;;;;;;5054379;28;19925;-86
2021/12/09 12:46:12;;;;;;;;;;;0.30;99.90;;;;;;5050364;28;20272;-86
2021/12/09 12:48:58;;;;;;;;;;;0.20;99.90;;;;;;5059140;28;19932;-85
2021/12/09 12:51:29;;;;;;;;;;;0.20;99.90;;;;;;5060261;28;20018;-86
2021/12/09 12:53:57;;;;;;;;;;;0.20;99.90;;;;;;5060387;28;19920;-85
2021/12/09 12:56:24;;;;;;;;;;;0.20;99.90;;;;;;5059958;28;19939;-85
2021/12/09 12:59:07;;;;;;;;;;;0.50;99.90;;;;;;5060181;28;19925;-86
2021/12/09 13:01:40;;;;;;;;;;;0.30;99.90;;;;;;5054774;28;19926;-85
2021/12/09 13:04:34;;;;;;;;;;;0.30;99.90;;;;;;5050310;28;19925;-86
2021/12/09 13:07:16;;;;;;;;;;;0.40;99.90;;;;;;5050092;28;20016;-85
2021/12/09 13:09:52;;;;;;;;;;;0.40;99.90;;;;;;5050613;28;19925;-85
2021/12/09 13:12:34;;;;;;;;;;;-0.30;99.90;;;;;;5050525;28;19960;-85
2021/12/09 13:15:08;;;;;;;;;;;0.40;99.90;;;;;;5053142;28;19928;-86
2021/12/09 13:17:41;;;;;;;;;;;0.40;99.90;;;;;;5050208;28;19925;-86
2021/12/09 13:20:25;;;;;;;;;;;0.40;99.90;;;;;;5051009;28;19925;-84
2021/12/09 13:23:07;;;;;;;;;;;-0.50;99.90;;;;;;5048724;28;19929;-85
2021/12/09 13:25:34;;;;;;;;;;;-0.50;99.90;;;;;;5045327;28;20400;-86
2021/12/09 13:28:03;;;;;;;;;;;0.40;99.90;;;;;;5048385;28;19949;-86
2021/12/09 13:33:44;;;;;;;;;;;0.40;99.90;;;;;;5047315;28;19921;-86
2021/12/09 13:36:33;;;;;;;;;;;0.40;99.90;;;;;;5047885;28;20011;-85
2021/12/09 13:39:22;;;;;;;;;;;0.40;99.90;;;;;;5053738;28;20412;-84
2021/12/09 13:47:31;;;;;;;;;;;0.40;99.90;;;;;;5049285;28;19928;-86
2021/12/09 13:50:15;;;;;;;;;;;0.60;99.90;;;;;;5047920;28;19941;-86
2021/12/09 13:55:28;;;;;;;;;;;0.40;99.90;;;;;;5051508;28;19944;-87
2021/12/09 13:57:58;;;;;;;;;;;0.40;99.90;;;;;;5050012;28;19932;-87
2021/12/09 14:00:36;;;;;;;;;;;0.40;99.90;;;;;;5054197;28;19914;-85
2021/12/09 14:03:04;;;;;;;;;;;0.40;99.90;;;;;;5058178;28;19929;-85
2021/12/09 14:05:47;;;;;;;;;;;0.40;99.90;;;;;;5058849;28;19935;-84
2021/12/09 14:08:21;;;;;;;;;;;0.30;99.90;;;;;;5056475;28;19920;-86
2021/12/09 14:10:50;;;;;;;;;;;0.40;99.90;;;;;;5057273;28;19956;-87
2021/12/09 14:13:20;;;;;;;;;;;0.40;99.90;;;;;;5050853;28;20011;-87
2021/12/09 14:16:05;;;;;;;;;;;0.40;99.90;;;;;;5049854;28;19932;-87
2021/12/09 14:18:41;;;;;;;;;;;0.40;99.90;;;;;;5054781;28;19914;-86
2021/12/09 14:21:08;;;;;;;;;;;0.20;99.90;;;;;;5059038;28;19913;-86
2021/12/09 14:23:36;;;;;;;;;;;0.30;99.90;;;;;;5058295;28;19913;-85
2021/12/09 14:26:04;;;;;;;;;;;0.30;99.90;;;;;;5057151;28;19943;-87
2021/12/09 14:28:32;;;;;;;;;;;0.30;99.90;;;;;;5052909;28;19932;-86
2021/12/09 14:30:59;;;;;;;;;;;0.40;99.90;;;;;;5050745;28;19913;-85
2021/12/09 14:33:25;;;;;;;;;;;0.30;99.90;;;;;;5051337;28;19929;-87
2021/12/09 14:36:05;;;;;;;;;;;0.30;99.90;;;;;;5047763;28;19929;-86
2021/12/09 14:38:31;;;;;;;;;;;0.30;99.90;;;;;;5050292;28;19960;-86
2021/12/09 14:41:04;;;;;;;;;;;0.40;99.90;;;;;;5057009;28;19933;-84
2021/12/09 14:43:31;;;;;;;;;;;0.10;99.90;;;;;;5052604;28;19956;-85
2021/12/09 14:45:58;;;;;;;;;;;0.40;99.90;;;;;;5050313;28;19925;-87
2021/12/09 14:48:30;;;;;;;;;;;0.40;99.90;;;;;;5057246;28;19920;-85
2021/12/09 14:50:56;;;;;;;;;;;0.50;99.90;;;;;;5057310;28;19925;-87
2021/12/09 14:53:30;;;;;;;;;;;0.40;99.90;;;;;;5051502;28;19929;-86
2021/12/09 14:55:56;;;;;;;;;;;0.40;99.90;;;;;;5050592;28;19925;-85
2021/12/09 14:58:24;;;;;;;;;;;0.30;99.90;;;;;;5057245;28;19993;-86
2021/12/09 15:00:55;;;;;;;;;;;0.30;99.90;;;;;;5056765;28;19925;-85